Latest Weather Observations for Mackay Airport

IDQ60801

Issued at 4:02 pm EST Wednesday 26 April 2017 (issued every 30 minutes, with the page automatically refreshed every 10 minutes)

About weather observations | Map of weather stations | Latest weather observations for QLD | Other Formats
Station Details ID: 033045 Name: MACKAY AERO Lat: -21.17 Lon: 149.18 Height: 4.7 m
Data from the previous 72 hours. | See also: Recent months at Mackay Airport
Date/Time
EST
Temp
°C
App
Temp
°C
Dew
Point
°C
Rel
Hum
%
Delta-T
°C
Wind Press
QNH
hPa
Press
MSL
hPa
Rain since
9am
mm
Dir  Spd
km/h
Gust
km/h
Spd
kts
Gust
kts
26/03:30pm 27.6 26.6 17.5 54 6.4 NNE 19 22 10 12 1010.6 1010.6 0.0
26/03:00pm 27.9 27.0 17.7 53 6.5 N 19 24 10 13 1010.8 1010.8 0.0
26/02:30pm 27.6 28.2 20.2 64 4.8 NNE 17 22 9 12 1011.1 1011.1 0.0
26/02:00pm 27.3 27.7 19.9 64 4.8 NE 17 22 9 12 1011.4 1011.4 0.0
26/01:30pm 27.1 27.3 20.2 66 4.5 ENE 19 24 10 13 1011.8 1011.8 0.0
26/01:00pm 27.0 27.6 21.1 70 3.9 ENE 19 24 10 13 1012.3 1012.3 0.0
26/12:30pm 26.8 27.2 20.6 69 4.1 ENE 19 24 10 13 1012.6 1012.6 0.0
26/12:00pm 26.7 27.6 20.8 70 3.9 ENE 17 20 9 11 1013.1 1013.1 0.0
26/11:30am 26.9 28.6 21.0 70 3.9 E 13 19 7 10 1014.0 1014.0 0.0
26/11:00am 26.7 29.5 20.8 70 3.9 E 7 11 4 6 1014.5 1014.5 0.0
26/10:30am 26.0 28.0 19.2 66 4.4 NW 7 13 4 7 1015.0 1015.0 0.0
26/10:00am 25.5 29.2 20.7 75 3.1 WSW 2 9 1 5 1015.3 1015.3 0.0
26/09:30am 24.5 27.6 21.0 81 2.3 WSW 6 9 3 5 1015.2 1015.2 0.0
26/09:00am 23.4 26.1 21.3 88 1.4 WSW 9 11 5 6 1015.1 1015.1 0.2
26/08:30am 22.2 24.5 20.7 91 1.0 W 9 13 5 7 1015.2 1015.2 0.2
26/08:00am 20.8 22.6 19.5 92 0.8 W 9 11 5 6 1015.0 1015.0 0.2
26/07:30am 19.6 20.8 19.1 97 0.3 WSW 11 13 6 7 1015.0 1015.0 0.2
26/07:00am 18.5 19.4 18.3 99 0.1 W 11 13 6 7 1014.6 1014.6 0.2
26/06:30am 17.6 19.0 17.4 99 0.1 WSW 6 9 3 5 1014.4 1014.4 0.2
26/06:00am 17.4 18.2 17.2 99 0.1 WSW 9 13 5 7 1014.1 1014.1 0.2
26/05:30am 17.6 19.0 17.4 99 0.1 W 6 9 3 5 1014.0 1014.0 0.2
26/05:00am 18.0 19.0 17.8 99 0.1 W 9 11 5 6 1013.7 1013.7 0.2
26/04:30am 17.8 19.1 17.6 99 0.1 SW 7 9 4 5 1013.7 1013.7 0.2
26/04:00am 18.0 19.6 17.8 99 0.1 W 6 9 3 5 1013.9 1013.9 0.2
26/03:30am 18.3 20.0 18.1 99 0.1 W 6 7 3 4 1013.9 1013.9 0.2
26/03:00am 18.4 19.6 18.2 99 0.1 WSW 9 11 5 6 1014.0 1014.0 0.2
26/02:30am 19.0 20.8 18.8 99 0.1 W 7 11 4 6 1014.2 1014.2 0.2
26/02:00am 18.8 20.5 18.6 99 0.1 SE 7 9 4 5 1014.5 1014.5 0.2
26/01:30am 18.7 20.0 18.4 98 0.2 SE 9 9 5 5 1015.0 1015.0 0.2
26/01:00am 19.1 21.1 18.8 98 0.2 SE 6 9 3 5 1015.2 1015.2 0.2
26/12:30am 19.4 21.4 19.2 99 0.1 SE 7 7 4 4 1015.2 1015.2 0.2
26/12:00am 19.4 21.4 19.1 98 0.2 SE 7 9 4 5 1015.5 1015.5 0.2
 
Date/Time
EST
Temp
°C
App
Temp
°C
Dew
Point
°C
Rel
Hum
%
Delta-T
°C
Wind Press
QNH
hPa
Press
MSL
hPa
Rain since
9am
mm
Dir  Spd
km/h
Gust
km/h
Spd
kts
Gust
kts
25/11:30pm 19.8 22.0 19.5 98 0.2 SE 7 9 4 5 1015.6 1015.6 0.2
25/11:00pm 19.5 21.1 19.2 98 0.2 SE 9 9 5 5 1015.8 1015.8 0.2
25/10:30pm 19.7 21.4 19.4 98 0.2 SE 9 11 5 6 1016.0 1016.0 0.2
25/10:00pm 20.2 22.5 19.9 98 0.2 SE 7 9 4 5 1016.0 1016.0 0.2
25/09:30pm 20.3 22.3 20.0 98 0.2 SE 9 11 5 6 1016.0 1016.0 0.2
25/09:00pm 20.4 22.5 20.1 98 0.2 SE 9 9 5 5 1015.9 1015.9 0.2
25/08:30pm 20.6 23.1 19.9 96 0.4 SE 6 7 3 4 1015.9 1015.9 0.2
25/08:00pm 21.2 23.4 20.5 96 0.5 SE 9 11 5 6 1015.8 1015.8 0.2
25/07:30pm 21.8 24.5 20.6 93 0.8 SE 7 9 4 5 1015.6 1015.6 0.2
25/07:00pm 22.8 25.1 21.3 91 1.0 ESE 11 13 6 7 1015.5 1015.5 0.2
25/06:30pm 23.0 24.8 21.1 89 1.2 ESE 13 13 7 7 1015.1 1015.1 0.2
25/06:00pm 23.3 25.1 21.2 88 1.4 ESE 13 15 7 8 1014.8 1014.8 0.2
25/05:30pm 23.9 25.3 21.0 84 1.9 ESE 15 17 8 9 1014.6 1014.6 0.2
25/05:00pm 24.7 26.2 21.2 81 2.3 ESE 15 20 8 11 1014.4 1014.4 0.2
25/04:30pm 25.4 26.6 21.5 79 2.6 ESE 17 20 9 11 1014.2 1014.2 0.2
25/04:00pm 25.6 26.3 21.5 78 2.7 ESE 20 24 11 13 1013.9 1013.9 0.2
25/03:30pm 26.2 27.0 21.8 77 2.9 ESE 20 24 11 13 1013.9 1013.9 0.2
25/03:00pm 26.3 27.0 21.5 75 3.2 ESE 20 26 11 14 1013.9 1013.9 0.2
25/02:30pm 25.9 26.2 20.7 73 3.4 ESE 20 28 11 15 1014.0 1014.0 0.2
25/02:00pm 26.3 26.8 21.1 73 3.4 ESE 20 28 11 15 1014.3 1014.3 0.2
25/01:30pm 26.3 26.9 21.3 74 3.3 ESE 20 24 11 13 1014.8 1014.8 0.2
25/01:00pm 26.5 27.2 21.5 74 3.3 ESE 20 28 11 15 1015.2 1015.2 0.2
25/12:30pm 26.6 27.3 21.6 74 3.3 ESE 20 26 11 14 1015.6 1015.6 0.2
25/12:00pm 26.5 26.9 21.7 75 3.2 ESE 22 26 12 14 1016.1 1016.1 0.2
25/11:30am 26.4 27.2 21.8 76 3.1 ESE 20 24 11 13 1016.7 1016.7 0.0
25/11:00am 26.6 27.5 22.0 76 3.1 ESE 20 28 11 15 1017.1 1017.1 0.0
25/10:30am 26.7 27.6 21.9 75 3.2 SE 20 28 11 15 1017.4 1017.4 0.0
25/10:00am 26.0 26.4 21.7 77 2.9 SE 22 30 12 16 1017.4 1017.4 0.0
25/09:30am 25.2 26.2 22.1 83 2.1 SE 20 28 11 15 1017.5 1017.5 0.0
25/09:00am 24.8 26.0 22.1 85 1.8 SE 19 26 10 14 1017.5 1017.5 0.0
25/08:30am 23.6 24.5 21.5 88 1.4 SSE 19 24 10 13 1017.1 1017.1 0.0
25/08:00am 22.2 24.1 21.4 95 0.5 S 13 19 7 10 1017.0 1017.0 0.0
25/07:30am 20.6 22.8 20.4 99 0.1 SSW 9 11 5 6 1016.8 1016.8 0.0
25/07:00am 19.4 21.1 19.4 100 0.0 SW 9 11 5 6 1016.6 1016.6 0.0
25/06:30am 18.5 19.8 18.5 100 0.0 SW 9 13 5 7 1016.3 1016.3 0.0
25/06:00am 18.5 20.1 18.3 99 0.1 WSW 7 9 4 5 1015.9 1015.9 0.0
25/05:30am 18.8 20.2 18.6 99 0.1 WSW 9 13 5 7 1015.7 1015.7 0.0
25/05:00am 18.7 20.0 18.4 98 0.2 WSW 9 11 5 6 1015.6 1015.6 0.0
25/04:30am 19.2 20.7 18.9 98 0.2 WSW 9 11 5 6 1015.4 1015.4 0.0
25/04:00am 19.0 20.8 18.8 99 0.1 SW 7 9 4 5 1015.4 1015.4 0.0
25/03:39am 19.0 20.5 18.8 99 0.1 SW 9 11 5 6 1015.4 1015.4 0.0
25/03:30am 18.9 20.3 18.7 99 0.1 SW 9 11 5 6 1015.4 1015.4 0.0
25/03:00am 19.2 20.4 19.0 99 0.1 SW 11 13 6 7 1015.4 1015.4 0.0
25/02:37am 19.1 20.2 18.9 99 0.1 SW 11 13 6 7 1015.5 1015.5 0.0
25/02:30am 19.1 20.2 18.9 99 0.1 SW 11 13 6 7 1015.5 1015.5 0.0
25/02:00am 19.5 20.8 19.2 98 0.2 SW 11 13 6 7 1015.9 1015.9 0.0
25/01:30am 19.9 21.6 19.4 97 0.3 SW 9 11 5 6 1016.2 1016.2 0.0
25/01:00am 20.1 21.5 19.6 97 0.3 SSW 11 11 6 6 1016.5 1016.5 0.0
25/12:30am 20.7 22.5 20.4 98 0.2 SSW 11 13 6 7 1016.7 1016.7 0.0
25/12:00am 20.3 21.8 19.8 97 0.3 SSW 11 13 6 7 1017.2 1017.2 0.0
 
Date/Time
EST
Temp
°C
App
Temp
°C
Dew
Point
°C
Rel
Hum
%
Delta-T
°C
Wind Press
QNH
hPa
Press
MSL
hPa
Rain since
9am
mm
Dir  Spd
km/h
Gust
km/h
Spd
kts
Gust
kts
24/11:30pm 20.3 21.8 19.8 97 0.3 SSW 11 13 6 7 1017.4 1017.4 0.0
24/11:00pm 20.8 23.0 20.3 97 0.3 SSW 9 13 5 7 1017.6 1017.6 0.0
24/10:30pm 20.8 22.2 20.3 97 0.3 SSW 13 15 7 8 1017.8 1017.8 0.0
24/10:00pm 21.0 22.9 20.5 97 0.3 SSW 11 13 6 7 1018.1 1018.1 0.0
24/09:30pm 20.9 23.0 20.2 96 0.4 SSW 9 13 5 7 1018.2 1018.2 0.0
24/09:00pm 21.1 22.3 19.9 93 0.8 SSW 13 17 7 9 1018.2 1018.2 0.0
24/08:30pm 21.8 23.8 19.9 89 1.2 S 9 11 5 6 1018.0 1018.0 0.0
24/08:00pm 23.4 24.8 20.3 83 2.0 ESE 13 17 7 9 1017.7 1017.7 0.0
24/07:30pm 23.5 24.2 20.4 83 2.0 ESE 17 22 9 12 1017.5 1017.5 0.0
24/07:00pm 23.8 24.8 21.1 85 1.8 ESE 17 24 9 13 1017.2 1017.2 0.0
24/06:30pm 24.0 24.1 19.9 78 2.6 ESE 19 24 10 13 1016.9 1016.9 0.0
24/06:00pm 24.2 24.4 20.1 78 2.7 ESE 19 28 10 15 1016.8 1016.8 0.0
24/05:30pm 24.6 25.2 21.1 81 2.3 SE 19 24 10 13 1016.7 1016.7 0.0
24/05:00pm 25.2 25.7 20.9 77 2.8 SE 19 26 10 14 1016.3 1016.3 0.0
24/04:30pm 25.6 25.7 21.1 76 3.0 SE 22 28 12 15 1016.1 1016.1 0.0
24/04:00pm 25.3 25.6 20.8 76 3.0 SE 20 28 11 15 1016.0 1016.0 0.0
24/03:30pm 25.4 24.7 20.2 73 3.4 SE 24 30 13 16 1015.7 1015.7 0.0
24/03:00pm 25.7 25.1 20.5 73 3.4 ESE 24 30 13 16 1015.8 1015.8 0.0
24/02:30pm 25.7 24.9 20.9 75 3.2 SE 26 30 14 16 1015.9 1015.9 0.0
24/02:00pm 25.8 25.4 21.0 75 3.2 SE 24 30 13 16 1016.1 1016.1 0.0
24/01:30pm 26.5 26.4 21.5 74 3.3 SE 24 33 13 18 1016.2 1016.2 0.0
24/01:00pm 25.9 25.5 20.9 74 3.3 SE 24 32 13 17 1016.7 1016.7 0.0
24/12:30pm 26.1 25.9 21.3 75 3.2 SE 24 32 13 17 1016.9 1016.9 0.0
24/12:00pm 26.1 26.4 22.2 79 2.6 SE 24 32 13 17 1017.2 1017.2 0.0
24/11:30am 25.9 25.2 21.8 78 2.7 SE 28 33 15 18 1017.6 1017.6 0.0
24/11:00am 25.8 25.4 22.3 81 2.3 SE 28 33 15 18 1017.9 1017.9 0.0
24/10:30am 25.4 26.8 22.9 86 1.7 SE 20 28 11 15 1018.3 1018.3 0.0
24/10:28am 25.4 26.4 22.9 86 1.7 SE 22 32 12 17 1018.3 1018.3 0.0
24/10:10am 23.7 24.0 21.6 88 1.4 SE 22 32 12 17 1018.6 1018.6 0.0
24/10:00am 24.7 25.1 21.8 84 1.9 SE 22 28 12 15 1018.6 1018.6 0.0
24/09:30am 24.5 25.9 22.6 89 1.3 SE 19 28 10 15 1018.5 1018.5 0.0
24/09:00am 23.1 23.9 21.4 90 1.1 SSE 19 24 10 13 1018.3 1018.3 3.2
24/08:30am 22.7 23.0 20.8 89 1.2 SSE 20 28 11 15 1018.1 1018.1 3.2
24/08:00am 22.1 23.1 21.1 94 0.7 SSE 17 24 9 13 1018.0 1018.0 3.2
24/07:30am 21.5 22.8 20.8 96 0.5 S 15 19 8 10 1017.9 1017.9 3.2
24/07:00am 20.7 22.4 20.2 97 0.3 S 11 13 6 7 1017.5 1017.5 3.2
24/06:30am 20.5 22.1 20.0 97 0.3 S 11 15 6 8 1016.9 1016.9 3.2
24/06:00am 20.8 21.3 20.1 96 0.4 SSE 17 20 9 11 1017.0 1017.0 3.2
24/05:30am 20.8 22.3 20.5 98 0.2 S 13 19 7 10 1016.6 1016.6 3.0
24/05:00am 20.6 22.3 20.1 97 0.3 S 11 13 6 7 1016.5 1016.5 3.0
24/04:30am 20.8 22.6 20.3 97 0.3 S 11 13 6 7 1016.4 1016.4 3.0
24/04:00am 20.7 22.8 20.2 97 0.3 S 9 11 5 6 1016.4 1016.4 3.0
24/03:30am 21.0 22.7 20.2 95 0.5 S 11 13 6 7 1016.5 1016.5 3.0
24/03:00am 21.1 23.7 20.4 96 0.5 SSE 7 11 4 6 1016.8 1016.8 3.0
24/02:30am 20.9 22.3 20.4 97 0.3 SSW 13 17 7 9 1016.9 1016.9 3.0
24/02:00am 20.8 22.6 20.3 97 0.3 SSW 11 13 6 7 1017.2 1017.2 3.0
24/01:30am 21.4 23.4 20.7 96 0.5 S 11 13 6 7 1017.5 1017.5 3.0
24/01:00am 21.1 22.5 20.3 95 0.5 S 13 13 7 7 1018.0 1018.0 3.0
24/12:30am 22.4 23.7 20.9 91 1.0 S 15 22 8 12 1018.2 1018.2 3.0
24/12:00am 23.6 23.8 21.3 87 1.5 SE 22 30 12 16 1018.4 1018.4 3.0
 
Date/Time
EST
Temp
°C
App
Temp
°C
Dew
Point
°C
Rel
Hum
%
Delta-T
°C
Wind Press
QNH
hPa
Press
MSL
hPa
Rain since
9am
mm
Dir  Spd
km/h
Gust
km/h
Spd
kts
Gust
kts
23/11:30pm 23.5 25.1 22.1 92 0.9 SE 17 28 9 15 1018.6 1018.6 3.0
23/11:00pm 21.5 23.3 20.3 93 0.8 S 11 17 6 9 1018.6 1018.6 3.0
23/10:30pm 21.5 23.1 20.7 95 0.5 SSW 13 19 7 10 1018.9 1018.9 3.0
23/10:00pm 21.5 23.3 20.3 93 0.8 S 11 17 6 9 1018.9 1018.9 3.0
23/09:30pm 21.9 23.2 20.2 90 1.1 S 13 17 7 9 1018.9 1018.9 3.0
23/09:00pm 24.2 24.1 21.5 85 1.8 SE 24 32 13 17 1018.9 1018.9 3.0
23/08:30pm 24.2 24.1 21.5 85 1.8 SE 24 30 13 16 1018.9 1018.9 3.0
23/08:00pm 24.1 24.2 21.2 84 1.9 SE 22 30 12 16 1018.5 1018.5 3.0
23/07:30pm 23.9 24.1 20.6 82 2.2 ESE 20 28 11 15 1018.2 1018.2 3.0
23/07:00pm 24.1 23.9 20.6 81 2.3 SE 22 28 12 15 1017.9 1017.9 3.0
23/06:30pm 23.9 24.2 20.8 83 2.0 SE 20 28 11 15 1017.6 1017.6 3.0
23/06:00pm 24.0 23.8 20.5 81 2.3 SE 22 28 12 15 1017.3 1017.3 3.0
23/05:30pm 24.3 23.2 20.2 78 2.7 SE 26 32 14 17 1017.0 1017.0 3.0
23/05:00pm 24.8 24.2 20.5 77 2.8 SE 24 32 13 17 1016.9 1016.9 3.0
23/04:30pm 25.0 23.3 19.8 73 3.4 ESE 28 33 15 18 1016.8 1016.8 3.0

Other Formats:

Comma delimited format used in spreadsheet applications
http://www.bom.gov.au/fwo/IDQ60801/IDQ60801.95367.axf

JavaScript Object Notation format (JSON) in row-major order
http://www.bom.gov.au/fwo/IDQ60801/IDQ60801.95367.json